This is the latest recevied weather packets stored in our database for station/object K7SPS-10. If no packets are shown the sender has not sent any weather packets the latest 10 day(s).
| Time | Temp. | Humidity | Pressure | Rain* | Wind** | Luminosity | Snow |
|---|---|---|---|---|---|---|---|
| 1778307844 | 16.11° C | 39% | 1018.1 hPa | 0 mm | - | 0 W/m² | - |
| 1778307542 | 17.22° C | 34% | 1018 hPa | 0 mm | - | 0 W/m² | - |
| 1778307240 | 17.22° C | 33% | 1017.9 hPa | 0 mm | - | 0 W/m² | - |
| 1778306936 | 16.67° C | 34% | 1017.8 hPa | 0 mm | - | 0 W/m² | - |
| 1778306633 | 17.22° C | 34% | 1017.7 hPa | 0 mm | - | 0 W/m² | - |
| 1778306328 | 16.67° C | 35% | 1017.6 hPa | 0 mm | - | 0 W/m² | - |
| 1778306024 | 16.67° C | 37% | 1017.5 hPa | 0 mm | - | 0 W/m² | - |
| 1778305721 | 16.67° C | 38% | 1017.8 hPa | 0 mm | - | 0 W/m² | - |
| 1778305418 | 16.67° C | 38% | 1017.5 hPa | 0 mm | - | 0 W/m² | - |
| 1778305116 | 17.22° C | 37% | 1017.5 hPa | 0 mm | - | 0 W/m² | - |
| 1778304813 | 17.78° C | 36% | 1017.6 hPa | 0 mm | - | 0 W/m² | - |
| 1778304512 | 17.78° C | 34% | 1017.4 hPa | 0 mm | - | 0 W/m² | - |
| 1778304209 | 17.22° C | 37% | 1017.5 hPa | 0 mm | - | 0 W/m² | - |
| 1778303906 | 17.22° C | 37% | 1017.1 hPa | 0 mm | - | 0 W/m² | - |
| 1778303604 | 16.67° C | 41% | 1017.1 hPa | 0 mm | - | 0 W/m² | - |
| 1778303300 | 17.22° C | 39% | 1017.5 hPa | 0 mm | - | 0 W/m² | - |
| 1778302997 | 16.67° C | 41% | 1017.1 hPa | 0 mm | - | 0 W/m² | - |
| 1778302694 | 16.67° C | 42% | 1017.3 hPa | 0 mm | - | 0 W/m² | - |
| 1778302391 | 17.22° C | 41% | 1017.1 hPa | 0 mm | - | 0 W/m² | - |
| 1778302089 | 16.67° C | 42% | 1017.1 hPa | 0 mm | - | 0 W/m² | - |
| 1778301786 | 17.22° C | 42% | 1017 hPa | 0 mm | - | 0 W/m² | - |
| 1778301482 | 17.78° C | 40% | 1017 hPa | 0 mm | - | 0 W/m² | - |
| 1778301178 | 17.78° C | 40% | 1016.8 hPa | 0 mm | - | 0 W/m² | - |
| 1778300874 | 17.78° C | 39% | 1016.7 hPa | 0 mm | - | 0 W/m² | - |
| 1778300571 | 17.78° C | 39% | 1016.7 hPa | 0 mm | - | 0 W/m² | - |
* Rain latest hour (hover to see other rain measurements)
** Current wind speed in m/s (hover to see current wind gust speed)